createdAt,value
2022-10-02T00:01:04.772Z,59.98
2022-10-02T00:02:36.480Z,59.81
2022-10-02T00:04:09.023Z,59.99
2022-10-02T00:05:42.708Z,59.86
2022-10-02T00:07:14.497Z,59.94
2022-10-02T00:08:46.116Z,59.94
2022-10-02T00:10:20.329Z,59.96
2022-10-02T00:11:54.891Z,59.87
2022-10-02T00:13:37.573Z,59.86
2022-10-02T00:15:17.070Z,59.94
2022-10-02T00:16:49.894Z,60.06
2022-10-02T00:18:25.082Z,60.06
2022-10-02T00:19:56.974Z,59.88
2022-10-02T00:21:37.890Z,59.80
2022-10-02T00:23:18.040Z,59.59
2022-10-02T00:24:52.224Z,59.63
2022-10-02T00:26:25.075Z,59.47
2022-10-02T00:27:56.762Z,59.71
2022-10-02T00:29:28.698Z,59.50
2022-10-02T00:31:06.533Z,59.41
2022-10-02T00:32:41.182Z,59.42
2022-10-02T00:34:15.370Z,59.54
2022-10-02T00:36:13.558Z,59.71
2022-10-02T00:37:52.577Z,59.79
2022-10-02T00:39:27.035Z,59.83
2022-10-02T00:41:05.110Z,59.82
2022-10-02T00:42:36.841Z,60.05
2022-10-02T00:44:08.591Z,59.95
2022-10-02T00:45:46.509Z,60.20
2022-10-02T00:47:18.113Z,60.14
2022-10-02T00:48:52.774Z,59.88
2022-10-02T00:50:27.847Z,60.06
2022-10-02T00:52:37.493Z,60.21
2022-10-02T00:54:15.091Z,60.41
2022-10-02T00:56:05.285Z,60.59
2022-10-02T00:57:47.814Z,60.57
2022-10-02T00:59:39.603Z,60.41
2022-10-02T01:01:16.897Z,60.33
2022-10-02T01:02:58.615Z,60.44
2022-10-02T01:04:36.938Z,60.24
2022-10-02T01:06:08.682Z,60.37
2022-10-02T01:07:42.341Z,60.13
2022-10-02T01:09:13.972Z,60.27
2022-10-02T01:10:45.491Z,60.28
2022-10-02T01:12:17.123Z,60.43
2022-10-02T01:13:48.817Z,60.34
2022-10-02T01:15:21.521Z,60.47
2022-10-02T01:16:53.265Z,60.05
2022-10-02T01:18:24.802Z,60.27
2022-10-02T01:19:56.361Z,60.22
2022-10-02T01:21:31.609Z,60.17
2022-10-02T01:23:12.837Z,60.53
2022-10-02T01:24:53.662Z,60.50
2022-10-02T01:26:25.299Z,60.54
2022-10-02T01:27:57.297Z,60.61
2022-10-02T01:29:28.886Z,60.62
2022-10-02T01:31:10.718Z,60.70
2022-10-02T01:32:43.374Z,60.69
2022-10-02T01:34:15.055Z,60.59
2022-10-02T01:35:46.585Z,60.78
2022-10-02T01:37:18.257Z,60.88
2022-10-02T01:38:50.114Z,60.73
2022-10-02T01:40:28.835Z,60.95
2022-10-02T01:42:00.368Z,60.86
2022-10-02T01:43:32.518Z,60.79
2022-10-02T01:45:04.848Z,60.65
2022-10-02T01:46:36.741Z,60.73
2022-10-02T01:48:12.402Z,60.75
2022-10-02T01:49:46.753Z,60.84
2022-10-02T01:51:37.195Z,60.80
2022-10-02T01:53:14.557Z,60.96
2022-10-02T01:54:49.242Z,61.00
2022-10-02T01:56:27.469Z,60.95
2022-10-02T01:58:17.914Z,60.90
2022-10-02T01:59:59.552Z,60.96
2022-10-02T02:01:35.464Z,60.77
2022-10-02T02:03:12.885Z,60.76
2022-10-02T02:04:50.804Z,60.78
2022-10-02T02:06:27.234Z,60.80
2022-10-02T02:08:02.420Z,60.66
2022-10-02T02:09:36.961Z,60.54
2022-10-02T02:11:12.251Z,60.68
2022-10-02T02:12:44.230Z,60.46
2022-10-02T02:14:17.025Z,60.69
2022-10-02T02:16:01.408Z,60.66
2022-10-02T02:17:33.071Z,60.75
2022-10-02T02:19:04.556Z,60.68
2022-10-02T02:20:37.148Z,60.62
2022-10-02T02:22:10.885Z,60.76
2022-10-02T02:23:42.693Z,60.76
2022-10-02T02:25:15.804Z,60.70
2022-10-02T02:26:47.612Z,60.76
2022-10-02T02:28:19.525Z,60.63
2022-10-02T02:29:51.669Z,60.93
2022-10-02T02:31:25.031Z,60.68
2022-10-02T02:32:57.912Z,60.87
2022-10-02T02:34:34.026Z,60.77
2022-10-02T02:36:07.901Z,60.88
2022-10-02T02:37:39.938Z,60.59
2022-10-02T02:39:14.230Z,60.66
2022-10-02T02:40:45.784Z,60.75
2022-10-02T02:42:18.188Z,60.51
2022-10-02T02:43:59.263Z,60.60
2022-10-02T02:45:32.490Z,60.49
2022-10-02T02:47:04.093Z,60.64
2022-10-02T02:48:46.234Z,60.70
2022-10-02T02:50:20.658Z,60.68
2022-10-02T02:51:52.629Z,60.94
2022-10-02T02:53:25.420Z,60.96
2022-10-02T02:55:17.174Z,60.69
2022-10-02T02:56:49.140Z,60.83
2022-10-02T02:58:31.736Z,60.79
2022-10-02T03:00:04.317Z,60.80
2022-10-02T03:01:36.075Z,60.91
2022-10-02T03:03:08.189Z,60.91
2022-10-02T03:04:39.755Z,60.78
2022-10-02T03:06:19.028Z,60.99
2022-10-02T03:07:54.559Z,60.86
2022-10-02T03:09:26.175Z,60.87
2022-10-02T03:11:00.644Z,60.92
2022-10-02T03:12:35.966Z,60.83
2022-10-02T03:14:13.803Z,61.03
2022-10-02T03:15:53.323Z,60.93
2022-10-02T03:17:31.227Z,60.96
2022-10-02T03:19:10.767Z,60.95
2022-10-02T03:20:53.295Z,60.99
2022-10-02T03:22:29.547Z,61.08
2022-10-02T03:24:09.690Z,60.94
2022-10-02T03:25:44.004Z,60.91
2022-10-02T03:27:18.792Z,61.03
2022-10-02T03:28:56.773Z,61.11
2022-10-02T03:30:28.705Z,61.14
2022-10-02T03:32:00.531Z,61.24
2022-10-02T03:33:32.270Z,61.20
2022-10-02T03:35:04.456Z,60.96
2022-10-02T03:36:36.204Z,60.84
2022-10-02T03:38:08.733Z,60.98
2022-10-02T03:39:41.146Z,60.88
2022-10-02T03:41:13.490Z,60.89
2022-10-02T03:42:45.100Z,61.06
2022-10-02T03:44:16.837Z,60.89
2022-10-02T03:45:51.491Z,61.22
2022-10-02T03:47:23.586Z,61.06
2022-10-02T03:48:56.810Z,60.76
2022-10-02T03:50:31.729Z,61.26
2022-10-02T03:52:05.712Z,61.10
2022-10-02T03:53:37.385Z,60.88
2022-10-02T03:55:12.016Z,61.00
2022-10-02T03:56:43.733Z,60.79
2022-10-02T03:58:16.288Z,60.93
2022-10-02T04:00:00.234Z,61.18
2022-10-02T04:01:35.850Z,61.09
2022-10-02T04:03:11.529Z,61.02
2022-10-02T04:04:47.437Z,61.19
2022-10-02T04:06:37.852Z,61.41
2022-10-02T04:08:10.977Z,61.27
2022-10-02T04:09:44.077Z,61.49
2022-10-02T04:11:35.650Z,61.31
2022-10-02T04:13:11.218Z,61.46
2022-10-02T04:14:42.811Z,61.19
2022-10-02T04:16:24.503Z,61.04
2022-10-02T04:17:59.528Z,61.01
2022-10-02T04:19:36.672Z,60.97
2022-10-02T04:21:20.558Z,61.19
2022-10-02T04:23:01.688Z,61.09
2022-10-02T04:24:48.667Z,61.12
2022-10-02T04:26:22.512Z,61.13
2022-10-02T04:28:06.023Z,61.15
2022-10-02T04:29:38.979Z,61.29
2022-10-02T04:31:11.789Z,61.29
2022-10-02T04:32:43.973Z,60.91
2022-10-02T04:34:15.577Z,61.07
2022-10-02T04:36:05.518Z,60.91
2022-10-02T04:37:57.506Z,61.08
2022-10-02T04:39:46.594Z,61.17
2022-10-02T04:41:27.619Z,60.85
2022-10-02T04:43:15.951Z,60.86
2022-10-02T04:44:50.243Z,61.13
2022-10-02T04:46:23.115Z,60.91
2022-10-02T04:48:06.815Z,61.00
2022-10-02T04:50:01.425Z,60.86
2022-10-02T04:51:45.032Z,60.71
2022-10-02T04:53:19.044Z,61.10
2022-10-02T04:55:09.052Z,60.81
2022-10-02T04:56:56.697Z,60.79
2022-10-02T04:58:47.116Z,60.58
2022-10-02T05:00:19.581Z,60.95
2022-10-02T05:01:57.027Z,60.85
2022-10-02T05:03:28.752Z,60.59
2022-10-02T05:05:22.033Z,60.59
2022-10-02T05:06:58.568Z,60.75
2022-10-02T05:08:33.032Z,60.86
2022-10-02T05:10:04.620Z,60.85
2022-10-02T05:11:42.938Z,60.65
2022-10-02T05:13:32.564Z,60.83
2022-10-02T05:15:23.359Z,60.96
2022-10-02T05:16:55.754Z,60.88
2022-10-02T05:18:39.628Z,60.83
2022-10-02T05:20:29.026Z,60.85
2022-10-02T05:22:19.129Z,60.76
2022-10-02T05:23:56.149Z,60.74
2022-10-02T05:25:42.702Z,60.97
2022-10-02T05:27:23.481Z,60.85
2022-10-02T05:28:55.548Z,60.80
2022-10-02T05:30:27.289Z,60.77
2022-10-02T05:32:06.420Z,60.95
2022-10-02T05:33:47.427Z,60.86
2022-10-02T05:35:26.652Z,60.66
2022-10-02T05:37:02.737Z,60.73
2022-10-02T05:38:37.489Z,60.49
2022-10-02T05:40:15.251Z,60.53
2022-10-02T05:42:05.305Z,60.49
2022-10-02T05:43:40.258Z,60.29
2022-10-02T05:45:15.936Z,60.17
2022-10-02T05:47:10.965Z,59.91
2022-10-02T05:48:46.854Z,60.09
2022-10-02T05:50:19.129Z,60.00
2022-10-02T05:52:01.278Z,59.86
2022-10-02T05:53:37.719Z,59.89
2022-10-02T05:55:15.661Z,59.74
2022-10-02T05:56:49.001Z,59.60
2022-10-02T05:58:42.059Z,59.32
2022-10-02T06:00:13.926Z,59.13
2022-10-02T06:01:46.818Z,59.50
2022-10-02T06:03:40.036Z,59.43
2022-10-02T06:05:19.036Z,59.41
2022-10-02T06:06:54.440Z,59.41
2022-10-02T06:08:37.396Z,59.33
2022-10-02T06:10:13.481Z,59.09
2022-10-02T06:11:50.497Z,59.02
2022-10-02T06:13:24.334Z,58.91
2022-10-02T06:15:02.472Z,58.95
2022-10-02T06:16:40.240Z,58.75
2022-10-02T06:18:17.328Z,58.63
2022-10-02T06:20:07.702Z,58.32
2022-10-02T06:21:45.283Z,58.31
2022-10-02T06:23:20.944Z,58.26
2022-10-02T06:24:58.116Z,58.08
2022-10-02T06:26:38.033Z,58.06
2022-10-02T06:28:24.198Z,57.75
2022-10-02T06:29:59.524Z,57.72
2022-10-02T06:31:36.579Z,57.68
2022-10-02T06:33:14.333Z,57.68
2022-10-02T06:34:48.150Z,57.58
2022-10-02T06:36:25.872Z,57.60
2022-10-02T06:37:59.057Z,57.33
2022-10-02T06:39:36.951Z,57.27
2022-10-02T06:41:20.836Z,57.35
2022-10-02T06:42:53.016Z,57.05
2022-10-02T06:44:31.201Z,57.18
2022-10-02T06:46:08.533Z,56.96
2022-10-02T06:47:40.783Z,57.08
2022-10-02T06:49:41.639Z,57.19
2022-10-02T06:51:32.459Z,57.12
2022-10-02T06:53:07.606Z,56.93
2022-10-02T06:54:46.995Z,56.87
2022-10-02T06:56:18.635Z,56.73
2022-10-02T06:57:51.528Z,56.73
2022-10-02T06:59:42.056Z,56.68
2022-10-02T07:01:15.924Z,56.79
2022-10-02T07:03:06.967Z,56.70
2022-10-02T07:12:37.511Z,57.05
2022-10-02T07:14:28.202Z,57.05
2022-10-02T07:16:01.119Z,57.08
2022-10-02T07:17:53.030Z,57.09
2022-10-02T07:19:33.526Z,57.21
2022-10-02T07:21:08.413Z,57.09
2022-10-02T07:22:59.653Z,56.70
2022-10-02T07:24:43.901Z,56.48
2022-10-02T07:26:24.888Z,56.50
2022-10-02T07:28:00.170Z,56.54
2022-10-02T07:29:54.466Z,56.41
2022-10-02T07:31:26.205Z,55.95
2022-10-02T07:33:02.490Z,55.98
2022-10-02T07:34:56.371Z,55.92
2022-10-02T07:36:35.029Z,55.83
2022-10-02T07:38:43.392Z,55.46
2022-10-02T07:40:35.230Z,55.15
2022-10-02T07:42:13.009Z,54.73
2022-10-02T07:43:50.904Z,54.64
2022-10-02T07:45:31.918Z,54.73
2022-10-02T07:47:06.559Z,54.46
2022-10-02T07:48:44.549Z,54.49
2022-10-02T07:50:24.731Z,54.24
2022-10-02T07:52:05.158Z,54.15
2022-10-02T07:53:40.595Z,53.84
2022-10-02T07:55:16.735Z,53.85
2022-10-02T07:56:49.686Z,53.41
2022-10-02T07:58:27.473Z,53.19
2022-10-02T08:00:04.817Z,53.22
2022-10-02T08:01:37.307Z,53.14
2022-10-02T08:03:19.145Z,53.21
2022-10-02T08:04:50.970Z,53.22
2022-10-02T08:06:22.632Z,53.27
2022-10-02T08:07:58.092Z,53.20
2022-10-02T08:09:34.253Z,52.81
2022-10-02T08:11:10.135Z,52.84
2022-10-02T08:12:44.601Z,52.35
2022-10-02T08:14:16.276Z,52.04
2022-10-02T08:15:53.002Z,51.95
2022-10-02T08:17:48.626Z,51.33
2022-10-02T08:19:21.318Z,51.17
2022-10-02T08:20:53.494Z,50.92
2022-10-02T08:22:28.872Z,50.62
2022-10-02T08:24:01.925Z,50.78
2022-10-02T08:25:43.169Z,50.61
2022-10-02T08:27:18.957Z,50.10
2022-10-02T08:29:02.267Z,50.20
2022-10-02T08:30:33.824Z,50.31
2022-10-02T08:32:08.171Z,50.15
2022-10-02T08:33:39.921Z,49.94
2022-10-02T08:35:12.321Z,49.64
2022-10-02T08:36:59.605Z,49.30
2022-10-02T08:38:49.396Z,49.58
2022-10-02T08:40:34.807Z,48.94
2022-10-02T08:42:26.377Z,48.91
2022-10-02T08:44:16.577Z,48.76
2022-10-02T08:46:02.195Z,48.56
2022-10-02T08:48:00.011Z,48.56
2022-10-02T08:49:43.591Z,48.21
2022-10-02T08:51:21.568Z,48.21
2022-10-02T08:53:00.290Z,47.89
2022-10-02T08:54:31.818Z,47.85
2022-10-02T08:56:22.321Z,47.89
2022-10-02T08:58:03.674Z,47.61
2022-10-02T08:59:58.336Z,47.30
2022-10-02T09:01:39.299Z,47.00
2022-10-02T09:03:20.228Z,47.19
2022-10-02T09:05:01.145Z,47.07
2022-10-02T09:06:32.730Z,46.75
2022-10-02T09:08:26.483Z,46.65
2022-10-02T09:10:20.933Z,46.77
2022-10-02T09:12:11.389Z,46.57
2022-10-02T09:13:50.400Z,46.10
2022-10-02T09:15:23.380Z,46.00
2022-10-02T09:16:58.017Z,46.08
2022-10-02T09:18:48.902Z,46.13
2022-10-02T09:20:36.208Z,46.01
2022-10-02T09:22:07.847Z,45.61
2022-10-02T09:23:55.433Z,45.57
2022-10-02T09:25:29.676Z,45.22
2022-10-02T09:27:20.297Z,44.94
2022-10-02T09:29:02.960Z,44.77
2022-10-02T09:30:34.564Z,44.98
2022-10-02T09:32:16.164Z,45.06
2022-10-02T09:33:55.022Z,45.46
2022-10-02T09:35:42.073Z,45.46
2022-10-02T09:37:31.845Z,45.21
2022-10-02T09:39:25.191Z,44.74
2022-10-02T09:41:15.554Z,44.29
2022-10-02T09:43:05.772Z,44.17
2022-10-02T09:44:37.988Z,43.74
2022-10-02T09:46:12.880Z,43.73
2022-10-02T09:47:44.908Z,43.66
2022-10-02T09:49:36.893Z,43.61
2022-10-02T09:51:08.605Z,43.45
2022-10-02T09:52:48.633Z,43.46
2022-10-02T09:54:41.579Z,43.67
2022-10-02T09:56:19.354Z,43.57
2022-10-02T09:57:57.659Z,43.60
2022-10-02T09:59:36.680Z,43.39
2022-10-02T10:01:18.365Z,43.75
2022-10-02T10:02:51.214Z,43.51
2022-10-02T10:04:42.187Z,42.94
2022-10-02T10:06:49.891Z,43.13
2022-10-02T10:08:40.483Z,43.16
2022-10-02T10:10:14.889Z,43.09
2022-10-02T10:11:51.586Z,43.11
2022-10-02T10:13:26.630Z,43.46
2022-10-02T10:15:20.387Z,43.16
2022-10-02T10:16:55.227Z,43.13
2022-10-02T10:18:32.847Z,43.09
2022-10-02T10:20:07.295Z,42.79
2022-10-02T10:21:57.542Z,42.65
2022-10-02T10:23:38.420Z,42.26
2022-10-02T10:25:18.374Z,41.57
2022-10-02T10:26:56.564Z,41.96
2022-10-02T10:28:34.444Z,41.81
2022-10-02T10:30:09.070Z,41.63
2022-10-02T10:31:41.555Z,41.91
2022-10-02T10:33:13.355Z,41.76
2022-10-02T10:34:54.294Z,41.62
2022-10-02T10:36:46.731Z,41.66
2022-10-02T10:38:37.500Z,41.67
2022-10-02T10:40:22.370Z,41.76
2022-10-02T10:41:53.922Z,41.91
2022-10-02T10:43:42.354Z,41.65
2022-10-02T10:45:20.410Z,41.38
2022-10-02T10:47:15.528Z,41.17
2022-10-02T10:48:56.424Z,40.74
2022-10-02T10:50:43.008Z,40.58
2022-10-02T10:52:16.366Z,40.87
2022-10-02T10:53:57.179Z,40.67
2022-10-02T10:55:43.819Z,40.54
2022-10-02T10:57:15.441Z,40.73
2022-10-02T10:58:48.885Z,40.90
2022-10-02T11:00:46.888Z,41.21
2022-10-02T11:02:19.107Z,41.06
2022-10-02T11:03:58.760Z,40.89
2022-10-02T11:05:40.759Z,40.73
2022-10-02T11:07:14.146Z,40.44
2022-10-02T11:08:45.874Z,40.67
2022-10-02T11:10:43.872Z,40.35
2022-10-02T11:12:28.878Z,40.29
2022-10-02T11:14:09.625Z,40.31
2022-10-02T11:15:45.084Z,40.04
2022-10-02T11:17:32.046Z,40.30
2022-10-02T11:19:11.178Z,40.46
2022-10-02T11:20:55.774Z,40.44
2022-10-02T11:22:45.960Z,40.75
2022-10-02T11:24:21.003Z,40.46
2022-10-02T11:26:07.204Z,40.34
2022-10-02T11:27:59.533Z,40.38
2022-10-02T11:29:39.179Z,40.41
2022-10-02T11:31:30.066Z,40.63
2022-10-02T11:33:02.551Z,40.65
2022-10-02T11:34:46.942Z,40.73
2022-10-02T11:36:25.349Z,40.58
2022-10-02T11:38:04.261Z,40.20
2022-10-02T11:39:51.137Z,40.11
2022-10-02T11:41:25.707Z,39.88
2022-10-02T11:43:16.476Z,40.32
2022-10-02T11:44:48.798Z,40.15
2022-10-02T11:46:38.813Z,39.80
2022-10-02T11:48:28.836Z,39.40
2022-10-02T11:50:04.250Z,39.73
2022-10-02T11:51:46.593Z,39.41
2022-10-02T11:53:27.573Z,39.45
2022-10-02T11:55:19.767Z,39.50
2022-10-02T11:57:03.881Z,39.61
2022-10-02T11:58:45.436Z,39.33
2022-10-02T12:00:36.337Z,39.21
2022-10-02T12:02:08.715Z,39.29
2022-10-02T12:03:40.454Z,39.58
2022-10-02T12:05:28.292Z,39.33
2022-10-02T12:07:18.677Z,39.30
2022-10-02T12:09:09.062Z,39.38
2022-10-02T12:10:44.394Z,38.76
2022-10-02T12:12:38.694Z,38.55
2022-10-02T12:14:13.552Z,38.73
2022-10-02T12:16:00.142Z,38.66
2022-10-02T12:17:35.174Z,38.44
2022-10-02T12:19:15.948Z,38.57
2022-10-02T12:21:12.582Z,38.02
2022-10-02T12:23:05.646Z,38.37
2022-10-02T12:25:14.861Z,37.96
2022-10-02T12:27:02.819Z,38.19
2022-10-02T12:28:56.770Z,38.09
2022-10-02T12:30:31.521Z,37.83
2022-10-02T12:32:24.940Z,37.80
2022-10-02T12:34:04.325Z,37.85
2022-10-02T12:35:48.188Z,37.60
2022-10-02T12:37:22.871Z,37.46
2022-10-02T12:39:18.791Z,37.50
2022-10-02T12:41:08.880Z,37.25
2022-10-02T12:42:57.809Z,37.24
2022-10-02T12:44:29.557Z,37.37
2022-10-02T12:46:14.403Z,37.30
2022-10-02T12:47:52.188Z,37.18
2022-10-02T12:49:30.081Z,37.05
2022-10-02T12:51:22.273Z,36.96
2022-10-02T12:53:00.600Z,36.93
2022-10-02T12:54:58.786Z,36.75
2022-10-02T12:56:49.809Z,36.59
2022-10-02T12:58:24.725Z,36.36
2022-10-02T13:00:00.084Z,36.48
2022-10-02T13:01:50.229Z,36.57
2022-10-02T13:03:37.321Z,36.70
2022-10-02T13:05:09.550Z,36.48
2022-10-02T13:06:46.872Z,36.66
2022-10-02T13:08:40.866Z,36.29
2022-10-02T13:10:22.049Z,35.98
2022-10-02T13:11:56.028Z,36.13
2022-10-02T13:13:40.006Z,36.40
2022-10-02T13:15:19.855Z,36.46
2022-10-02T13:16:58.130Z,36.80
2022-10-02T13:18:33.901Z,36.78
2022-10-02T13:20:26.737Z,36.42
2022-10-02T13:21:59.197Z,36.46
2022-10-02T13:23:46.140Z,36.22
2022-10-02T13:25:19.102Z,36.12
2022-10-02T13:26:51.685Z,36.27
2022-10-02T13:28:29.572Z,36.05
2022-10-02T13:30:19.787Z,36.13
2022-10-02T13:32:05.201Z,36.04
2022-10-02T13:33:45.605Z,36.01
2022-10-02T13:35:20.459Z,36.19
2022-10-02T13:37:10.965Z,36.04
2022-10-02T13:39:01.526Z,35.61
2022-10-02T13:40:42.287Z,35.99
2022-10-02T13:42:18.464Z,35.93
2022-10-02T13:44:08.058Z,35.61
2022-10-02T13:45:55.555Z,35.98
2022-10-02T13:47:27.569Z,35.68
2022-10-02T13:49:01.962Z,35.74
2022-10-02T13:50:38.176Z,35.72
2022-10-02T13:52:28.649Z,36.10
2022-10-02T13:54:03.955Z,36.11
2022-10-02T13:55:39.511Z,36.16
2022-10-02T13:57:30.515Z,36.08
2022-10-02T13:59:02.409Z,35.84
2022-10-02T14:00:40.644Z,35.66
2022-10-02T14:03:54.800Z,35.63
2022-10-02T14:05:26.574Z,35.70
2022-10-02T14:07:18.953Z,35.62
2022-10-02T14:09:09.317Z,35.47
2022-10-02T14:10:47.152Z,35.48
2022-10-02T14:12:29.475Z,35.62
2022-10-02T14:14:03.594Z,36.17
2022-10-02T14:15:42.062Z,35.94
2022-10-02T14:17:16.953Z,35.79
2022-10-02T14:19:03.462Z,36.27
2022-10-02T14:20:46.949Z,35.99
2022-10-02T14:22:37.917Z,35.91
2022-10-02T14:24:20.247Z,35.96
2022-10-02T14:26:11.459Z,36.27
2022-10-02T14:28:09.756Z,35.97
2022-10-02T14:29:46.134Z,35.85
2022-10-02T14:31:37.163Z,36.02
2022-10-02T14:33:17.330Z,36.03
2022-10-02T14:35:00.920Z,35.74
2022-10-02T14:36:36.403Z,35.81
2022-10-02T14:38:14.092Z,35.83
2022-10-02T14:39:46.148Z,36.15
2022-10-02T14:41:30.309Z,36.18
2022-10-02T14:43:07.746Z,35.96
2022-10-02T14:44:42.329Z,36.14
2022-10-02T14:46:33.600Z,36.12
2022-10-02T14:48:11.446Z,36.26
2022-10-02T14:50:01.377Z,36.28
2022-10-02T14:51:52.026Z,35.98
2022-10-02T14:53:30.203Z,36.20
2022-10-02T14:55:04.968Z,36.15
2022-10-02T14:56:57.969Z,36.10
2022-10-02T14:58:48.513Z,36.32
2022-10-02T15:00:21.435Z,35.95
2022-10-02T15:02:14.635Z,35.83
2022-10-02T15:04:01.225Z,35.80
2022-10-02T15:05:35.457Z,36.09
2022-10-02T15:07:08.193Z,36.19
2022-10-02T15:08:50.568Z,36.17
2022-10-02T15:10:22.608Z,36.15
2022-10-02T15:12:02.695Z,36.22
2022-10-02T15:13:34.536Z,36.29
2022-10-02T15:15:10.953Z,36.27
2022-10-02T15:17:08.106Z,36.39
2022-10-02T15:18:40.107Z,36.32
2022-10-02T15:20:26.209Z,36.46
2022-10-02T15:21:58.513Z,36.55
2022-10-02T15:23:32.805Z,36.89
2022-10-02T15:25:27.676Z,36.73
2022-10-02T15:27:11.812Z,36.85
2022-10-02T15:28:49.151Z,36.82
2022-10-02T15:30:20.864Z,36.94
2022-10-02T15:32:06.971Z,37.01
2022-10-02T15:33:43.103Z,37.07
2022-10-02T15:35:20.747Z,37.16
2022-10-02T15:36:59.183Z,37.23
2022-10-02T15:38:44.372Z,37.34
2022-10-02T15:40:21.984Z,37.50
2022-10-02T15:41:59.677Z,37.47
2022-10-02T15:43:47.872Z,37.47
2022-10-02T15:45:25.895Z,37.50
2022-10-02T15:47:05.871Z,37.59
2022-10-02T15:48:46.911Z,37.86
2022-10-02T15:50:39.331Z,37.74
2022-10-02T15:52:13.491Z,37.85
2022-10-02T15:53:45.037Z,37.76
2022-10-02T15:55:19.462Z,37.81
2022-10-02T15:57:07.528Z,37.97
2022-10-02T15:58:48.176Z,37.87
2022-10-02T16:00:22.714Z,38.00
2022-10-02T16:02:17.545Z,37.89
2022-10-02T16:04:00.208Z,38.12
2022-10-02T16:05:41.113Z,38.16
2022-10-02T16:07:16.883Z,38.28
2022-10-02T16:08:48.605Z,38.18
2022-10-02T16:10:32.536Z,38.56
2022-10-02T16:12:14.579Z,38.42
2022-10-02T16:13:52.070Z,38.35
2022-10-02T16:15:31.473Z,38.52
2022-10-02T16:17:07.869Z,38.67
2022-10-02T16:18:45.852Z,38.56
2022-10-02T16:20:17.419Z,38.50
2022-10-02T16:21:55.095Z,38.85
2022-10-02T16:23:29.900Z,38.85
2022-10-02T16:25:19.854Z,38.83
2022-10-02T16:27:11.541Z,39.08
2022-10-02T16:28:56.488Z,38.96
2022-10-02T16:30:28.084Z,38.88
2022-10-02T16:32:12.535Z,39.01
2022-10-02T16:34:03.053Z,39.13
2022-10-02T16:35:44.174Z,39.18
2022-10-02T16:37:15.851Z,39.27
2022-10-02T16:38:53.721Z,39.62
2022-10-02T16:40:43.764Z,39.91
2022-10-02T16:42:22.198Z,39.96
2022-10-02T16:44:12.753Z,40.12
2022-10-02T16:45:53.023Z,40.21
2022-10-02T16:47:38.407Z,40.48
2022-10-02T16:49:21.857Z,40.40
2022-10-02T16:51:09.571Z,40.62
2022-10-02T16:52:41.193Z,40.84
2022-10-02T16:54:17.281Z,41.01
2022-10-02T16:55:51.125Z,41.10
2022-10-02T16:57:50.240Z,41.09
2022-10-02T16:59:54.725Z,41.25
2022-10-02T17:01:28.268Z,41.31
2022-10-02T17:02:59.962Z,41.68
2022-10-02T17:04:42.964Z,41.56
2022-10-02T17:06:41.096Z,41.40
2022-10-02T17:08:15.574Z,41.69
2022-10-02T17:10:18.099Z,41.42
2022-10-02T17:11:59.784Z,41.58
2022-10-02T17:13:51.202Z,41.69
2022-10-02T17:15:25.674Z,41.92
2022-10-02T17:17:02.048Z,42.08
2022-10-02T17:18:46.884Z,42.31
2022-10-02T17:20:30.712Z,42.05
2022-10-02T17:22:04.990Z,42.58
2022-10-02T17:23:46.118Z,42.53
2022-10-02T17:25:17.739Z,42.76
2022-10-02T17:27:13.216Z,42.65
2022-10-02T17:28:57.530Z,42.57
2022-10-02T17:30:30.439Z,43.02
2022-10-02T17:32:02.694Z,42.98
2022-10-02T17:33:45.638Z,42.89
2022-10-02T17:35:18.263Z,43.01
2022-10-02T17:37:12.591Z,42.73
2022-10-02T17:38:56.204Z,42.88
2022-10-02T17:40:29.138Z,43.06
2022-10-02T17:42:06.484Z,43.25
2022-10-02T17:43:52.976Z,43.04
2022-10-02T17:45:31.670Z,43.15
2022-10-02T17:47:03.443Z,43.34
2022-10-02T17:48:53.739Z,43.53
2022-10-02T17:50:30.106Z,43.50
2022-10-02T17:52:31.712Z,43.69
2022-10-02T17:54:25.852Z,43.52
2022-10-02T17:56:22.472Z,43.50
2022-10-02T17:58:16.970Z,43.78
2022-10-02T17:59:51.625Z,43.75
2022-10-02T18:01:27.068Z,44.16
2022-10-02T18:03:05.223Z,44.28
2022-10-02T18:04:40.200Z,44.03
2022-10-02T18:06:28.802Z,44.15
2022-10-02T18:08:00.332Z,44.00
2022-10-02T18:09:57.306Z,44.00
2022-10-02T18:11:41.820Z,44.29
2022-10-02T18:13:36.068Z,44.59
2022-10-02T18:15:27.692Z,44.16
2022-10-02T18:17:17.908Z,44.46
2022-10-02T18:19:22.171Z,44.61
2022-10-02T18:21:02.144Z,44.48
2022-10-02T18:22:44.699Z,44.58
2022-10-02T18:24:37.513Z,44.53
2022-10-02T18:26:19.060Z,44.84
2022-10-02T18:27:56.143Z,45.03
2022-10-02T18:29:30.651Z,45.09
2022-10-02T18:31:08.898Z,44.93
2022-10-02T18:32:40.537Z,45.28
2022-10-02T18:34:31.849Z,45.09
2022-10-02T18:36:21.929Z,45.34
2022-10-02T18:37:57.762Z,45.07
2022-10-02T18:39:45.090Z,45.05
2022-10-02T18:41:36.511Z,45.08
2022-10-02T18:43:27.409Z,45.40
2022-10-02T18:45:11.831Z,45.15
2022-10-02T18:46:53.043Z,44.92
2022-10-02T18:48:43.656Z,45.18
2022-10-02T18:50:39.913Z,45.72
2022-10-02T18:52:15.230Z,45.83
2022-10-02T18:54:02.416Z,45.91
2022-10-02T18:55:49.086Z,45.81
2022-10-02T18:57:39.031Z,46.08
2022-10-02T18:59:13.650Z,45.84
2022-10-02T19:00:48.277Z,46.06
2022-10-02T19:02:35.588Z,46.14
2022-10-02T19:04:16.513Z,45.95
2022-10-02T19:05:56.805Z,46.26
2022-10-02T19:07:30.058Z,45.87
2022-10-02T19:09:11.152Z,45.98
2022-10-02T19:10:51.203Z,46.26
2022-10-02T19:12:28.117Z,46.30
2022-10-02T19:14:03.579Z,46.36
2022-10-02T19:15:37.952Z,46.22
2022-10-02T19:17:13.258Z,46.44
2022-10-02T19:18:45.023Z,45.98
2022-10-02T19:20:36.290Z,46.35
2022-10-02T19:22:22.297Z,46.21
2022-10-02T19:24:04.934Z,46.59
2022-10-02T19:25:38.316Z,46.05
2022-10-02T19:27:16.235Z,46.19
2022-10-02T19:28:49.343Z,46.32
2022-10-02T19:30:23.576Z,46.01
2022-10-02T19:31:56.292Z,46.13
2022-10-02T19:33:53.913Z,46.18
2022-10-02T19:35:28.825Z,46.08
2022-10-02T19:37:02.302Z,46.13
2022-10-02T19:38:37.649Z,46.20
2022-10-02T19:40:35.351Z,46.34
2022-10-02T19:42:10.380Z,46.35
2022-10-02T19:43:46.870Z,46.01
2022-10-02T19:45:29.064Z,46.11
2022-10-02T19:47:04.184Z,46.23
2022-10-02T19:48:38.689Z,45.98
2022-10-02T19:50:20.379Z,46.10
2022-10-02T19:51:53.250Z,46.14
2022-10-02T19:53:26.163Z,46.07
2022-10-02T19:54:57.712Z,46.33
2022-10-02T19:56:32.334Z,46.36
2022-10-02T19:58:11.114Z,46.49
2022-10-02T19:59:44.159Z,46.20
2022-10-02T20:01:22.091Z,46.79
2022-10-02T20:02:54.756Z,46.44
2022-10-02T20:04:29.633Z,46.45
2022-10-02T20:06:03.289Z,46.61
2022-10-02T20:07:37.477Z,46.52
2022-10-02T20:09:13.730Z,46.61
2022-10-02T20:11:08.757Z,46.48
2022-10-02T20:12:41.908Z,46.41
2022-10-02T20:14:15.045Z,46.23
2022-10-02T20:16:11.642Z,46.44
2022-10-02T20:17:43.499Z,46.26
2022-10-02T20:19:35.634Z,46.36
2022-10-02T20:21:09.399Z,46.72
2022-10-02T20:23:02.858Z,46.80
2022-10-02T20:24:44.487Z,46.67
2022-10-02T20:26:16.245Z,46.94
2022-10-02T20:27:52.304Z,47.00
2022-10-02T20:29:26.648Z,46.77
2022-10-02T20:31:05.142Z,46.66
2022-10-02T20:32:47.749Z,47.07
2022-10-02T20:34:19.365Z,46.61
2022-10-02T20:36:01.818Z,46.87
2022-10-02T20:37:35.153Z,46.67
2022-10-02T20:39:12.239Z,46.52
2022-10-02T20:40:45.365Z,47.13
2022-10-02T20:42:30.348Z,46.70
2022-10-02T20:44:04.981Z,46.75
2022-10-02T20:45:46.173Z,46.77
2022-10-02T20:47:31.455Z,47.42
2022-10-02T20:49:09.574Z,46.97
2022-10-02T20:50:49.755Z,47.03
2022-10-02T20:52:30.370Z,47.09
2022-10-02T20:54:20.122Z,47.33
2022-10-02T20:55:53.567Z,47.24
2022-10-02T20:58:00.185Z,47.54
2022-10-02T20:59:45.478Z,47.54
2022-10-02T21:01:18.706Z,47.71
2022-10-02T21:03:05.940Z,47.81
2022-10-02T21:04:55.525Z,47.29
2022-10-02T21:06:38.128Z,47.31
2022-10-02T21:08:09.960Z,47.43
2022-10-02T21:10:17.298Z,47.16
2022-10-02T21:11:56.735Z,47.35
2022-10-02T21:13:47.079Z,47.58
2022-10-02T21:15:21.644Z,47.57
2022-10-02T21:17:09.459Z,47.58
2022-10-02T21:18:53.464Z,47.65
2022-10-02T21:20:49.833Z,47.51
2022-10-02T21:22:26.199Z,47.62
2022-10-02T21:24:06.883Z,47.72
2022-10-02T21:26:03.136Z,47.82
2022-10-02T21:27:53.335Z,47.85
2022-10-02T21:29:31.104Z,48.25
2022-10-02T21:31:10.306Z,48.26
2022-10-02T21:32:51.963Z,48.41
2022-10-02T21:34:31.162Z,48.27
2022-10-02T21:36:13.507Z,48.62
2022-10-02T21:38:09.506Z,48.44
2022-10-02T21:40:01.820Z,48.72
2022-10-02T21:41:52.210Z,48.75